createdAt,value
2017-09-10T00:00:13.600Z,997.51
2017-09-10T00:01:13.569Z,997.53
2017-09-10T00:02:13.534Z,997.60
2017-09-10T00:03:13.505Z,997.66
2017-09-10T00:04:13.468Z,997.69
2017-09-10T00:05:13.436Z,997.71
2017-09-10T00:06:13.404Z,997.72
2017-09-10T00:07:13.375Z,997.69
2017-09-10T00:08:13.338Z,997.67
2017-09-10T00:09:13.307Z,997.66
2017-09-10T00:10:13.282Z,997.65
2017-09-10T00:11:13.239Z,997.68
2017-09-10T00:12:13.204Z,997.74
2017-09-10T00:13:13.172Z,997.75
2017-09-10T00:14:13.141Z,997.75
2017-09-10T00:15:13.109Z,997.77
2017-09-10T00:16:13.086Z,997.78
2017-09-10T00:17:13.040Z,997.81
2017-09-10T00:18:13.013Z,997.90
2017-09-10T00:19:12.983Z,997.91
2017-09-10T00:20:12.940Z,997.91
2017-09-10T00:21:12.908Z,997.89
2017-09-10T00:22:12.875Z,997.87
2017-09-10T00:23:12.841Z,997.89
2017-09-10T00:24:12.811Z,997.87
2017-09-10T00:25:12.802Z,997.87
2017-09-10T00:26:12.742Z,997.96
2017-09-10T00:27:12.710Z,997.93
2017-09-10T00:28:12.675Z,997.91
2017-09-10T00:29:12.643Z,997.89
2017-09-10T00:30:12.617Z,997.90
2017-09-10T00:31:12.575Z,997.94
2017-09-10T00:32:12.549Z,997.92
2017-09-10T00:33:12.507Z,997.95
2017-09-10T00:34:12.488Z,997.94
2017-09-10T00:35:12.445Z,997.99
2017-09-10T00:36:12.417Z,997.98
2017-09-10T00:37:12.377Z,998.04
2017-09-10T00:38:12.345Z,998.07
2017-09-10T00:39:12.313Z,998.08
2017-09-10T00:40:12.290Z,998.12
2017-09-10T00:41:12.241Z,998.07
2017-09-10T00:42:12.210Z,998.09
2017-09-10T00:43:12.182Z,998.01
2017-09-10T00:44:12.143Z,998.06
2017-09-10T00:45:12.111Z,998.08
2017-09-10T00:46:12.079Z,998.05
2017-09-10T00:47:12.054Z,998.04
2017-09-10T00:48:12.012Z,998.04
2017-09-10T00:49:11.985Z,998.01
2017-09-10T00:50:11.955Z,998.08
2017-09-10T00:51:11.920Z,998.07
2017-09-10T00:52:11.880Z,998.07
2017-09-10T00:53:11.847Z,998.10
2017-09-10T00:54:11.814Z,998.09
2017-09-10T00:55:11.786Z,998.14
2017-09-10T00:56:11.746Z,998.14
2017-09-10T00:57:11.718Z,998.15
2017-09-10T00:58:11.684Z,998.15
2017-09-10T00:59:11.647Z,998.15
2017-09-10T01:00:11.620Z,998.16
2017-09-10T01:01:11.590Z,998.12
2017-09-10T01:02:11.553Z,998.14
2017-09-10T01:03:11.517Z,998.10
2017-09-10T01:04:11.484Z,998.13
2017-09-10T01:05:11.454Z,998.13
2017-09-10T01:06:11.415Z,998.11
2017-09-10T01:07:11.382Z,998.13
2017-09-10T01:08:11.349Z,998.10
2017-09-10T01:09:11.330Z,998.06
2017-09-10T01:10:11.282Z,998.05
2017-09-10T01:11:11.259Z,998.12
2017-09-10T01:12:11.220Z,998.07
2017-09-10T01:13:11.202Z,998.06
2017-09-10T01:14:11.152Z,998.09
2017-09-10T01:15:11.124Z,998.11
2017-09-10T01:16:11.083Z,998.12
2017-09-10T01:17:11.052Z,998.17
2017-09-10T01:18:11.028Z,998.19
2017-09-10T01:19:10.985Z,998.22
2017-09-10T01:20:10.972Z,998.21
2017-09-10T01:21:10.922Z,998.22
2017-09-10T01:22:10.897Z,998.21
2017-09-10T01:23:10.854Z,998.16
2017-09-10T01:24:10.829Z,998.23
2017-09-10T01:25:10.792Z,998.26
2017-09-10T01:26:10.761Z,998.26
2017-09-10T01:27:10.744Z,998.26
2017-09-10T01:28:10.684Z,998.25
2017-09-10T01:29:10.653Z,998.25
2017-09-10T01:30:10.637Z,998.26
2017-09-10T01:31:10.589Z,998.25
2017-09-10T01:32:10.576Z,998.30
2017-09-10T01:33:10.527Z,998.30
2017-09-10T01:34:10.496Z,998.32
2017-09-10T01:35:10.460Z,998.35
2017-09-10T01:36:10.430Z,998.33
2017-09-10T01:37:10.388Z,998.28
2017-09-10T01:38:10.352Z,998.31
2017-09-10T01:39:10.324Z,998.34
2017-09-10T01:40:10.287Z,998.35
2017-09-10T01:41:10.256Z,998.41
2017-09-10T01:42:10.229Z,998.42
2017-09-10T01:43:10.204Z,998.44
2017-09-10T01:44:10.174Z,998.45
2017-09-10T01:45:10.122Z,998.44
2017-09-10T01:46:10.091Z,998.50
2017-09-10T01:47:10.050Z,998.52
2017-09-10T01:48:10.058Z,998.48
2017-09-10T01:49:09.994Z,998.48
2017-09-10T01:50:09.956Z,998.48
2017-09-10T01:51:09.929Z,998.49
2017-09-10T01:52:09.888Z,998.46
2017-09-10T01:53:09.863Z,998.45
2017-09-10T01:54:09.819Z,998.43
2017-09-10T01:55:09.812Z,998.46
2017-09-10T01:56:09.762Z,998.46
2017-09-10T01:57:09.719Z,998.45
2017-09-10T01:58:09.687Z,998.49
2017-09-10T01:59:09.655Z,998.51
2017-09-10T02:00:09.621Z,998.50
2017-09-10T02:01:09.587Z,998.52
2017-09-10T02:02:09.550Z,998.50
2017-09-10T02:03:09.525Z,998.46
2017-09-10T02:04:09.483Z,998.47
2017-09-10T02:05:09.451Z,998.48
2017-09-10T02:06:09.417Z,998.44
2017-09-10T02:07:09.391Z,998.49
2017-09-10T02:08:09.351Z,998.51
2017-09-10T02:09:09.336Z,998.53
2017-09-10T02:10:09.283Z,998.55
2017-09-10T02:11:09.258Z,998.53
2017-09-10T02:12:09.218Z,998.54
2017-09-10T02:13:09.189Z,998.54
2017-09-10T02:14:09.151Z,998.50
2017-09-10T02:15:09.117Z,998.55
2017-09-10T02:16:09.085Z,998.55
2017-09-10T02:17:09.049Z,998.60
2017-09-10T02:18:09.024Z,998.63
2017-09-10T02:19:08.983Z,998.66
2017-09-10T02:20:08.947Z,998.68
2017-09-10T02:21:08.933Z,998.65
2017-09-10T02:22:08.886Z,998.71
2017-09-10T02:23:08.856Z,998.68
2017-09-10T02:24:08.814Z,998.70
2017-09-10T02:25:08.792Z,998.68
2017-09-10T02:26:08.756Z,998.64
2017-09-10T02:27:08.714Z,998.65
2017-09-10T02:28:08.685Z,998.66
2017-09-10T02:29:08.648Z,998.67
2017-09-10T02:30:08.615Z,998.65
2017-09-10T02:31:08.588Z,998.64
2017-09-10T02:32:08.548Z,998.57
2017-09-10T02:33:08.515Z,998.59
2017-09-10T02:34:08.483Z,998.60
2017-09-10T02:35:08.446Z,998.62
2017-09-10T02:36:08.414Z,998.65
2017-09-10T02:37:08.380Z,998.61
2017-09-10T02:38:08.350Z,998.63
2017-09-10T02:39:08.321Z,998.58
2017-09-10T02:40:08.280Z,998.64
2017-09-10T02:41:08.245Z,998.61
2017-09-10T02:42:08.215Z,998.65
2017-09-10T02:43:08.186Z,998.62
2017-09-10T02:44:08.148Z,998.61
2017-09-10T02:45:08.112Z,998.59
2017-09-10T02:46:08.082Z,998.55
2017-09-10T02:47:08.051Z,998.58
2017-09-10T02:48:08.014Z,998.57
2017-09-10T02:49:07.980Z,998.58
2017-09-10T02:50:07.943Z,998.62
2017-09-10T02:51:07.919Z,998.63
2017-09-10T02:52:07.879Z,998.62
2017-09-10T02:53:07.853Z,998.60
2017-09-10T02:54:07.808Z,998.60
2017-09-10T02:55:07.778Z,998.56
2017-09-10T02:56:07.742Z,998.54
2017-09-10T02:57:07.710Z,998.50
2017-09-10T02:58:07.676Z,998.46
2017-09-10T02:59:07.642Z,998.53
2017-09-10T03:00:07.606Z,998.45
2017-09-10T03:01:07.576Z,998.45
2017-09-10T03:02:07.543Z,998.46
2017-09-10T03:03:07.509Z,998.44
2017-09-10T03:04:07.474Z,998.46
2017-09-10T03:05:07.444Z,998.46
2017-09-10T03:06:07.406Z,998.43
2017-09-10T03:07:07.375Z,998.43
2017-09-10T03:08:07.340Z,998.45
2017-09-10T03:09:07.311Z,998.47
2017-09-10T03:10:07.282Z,998.49
2017-09-10T03:11:07.240Z,998.46
2017-09-10T03:12:07.212Z,998.46
2017-09-10T03:13:07.175Z,998.45
2017-09-10T03:14:07.138Z,998.41
2017-09-10T03:15:07.107Z,998.43
2017-09-10T03:16:07.072Z,998.37
2017-09-10T03:17:07.039Z,998.41
2017-09-10T03:18:07.002Z,998.39
2017-09-10T03:19:06.973Z,998.37
2017-09-10T03:20:06.937Z,998.41
2017-09-10T03:21:06.904Z,998.42
2017-09-10T03:22:06.873Z,998.47
2017-09-10T03:23:06.837Z,998.45
2017-09-10T03:24:06.816Z,998.49
2017-09-10T03:25:06.768Z,998.50
2017-09-10T03:26:06.735Z,998.53
2017-09-10T03:27:06.705Z,998.54
2017-09-10T03:28:06.676Z,998.51
2017-09-10T03:29:06.637Z,998.51
2017-09-10T03:30:06.625Z,998.56
2017-09-10T03:31:06.571Z,998.58
2017-09-10T03:32:06.535Z,998.55
2017-09-10T03:33:06.502Z,998.57
2017-09-10T03:34:06.467Z,998.65
2017-09-10T03:35:06.434Z,998.60
2017-09-10T03:36:06.402Z,998.67
2017-09-10T03:37:06.369Z,998.65
2017-09-10T03:38:06.336Z,998.68
2017-09-10T03:39:06.302Z,998.66
2017-09-10T03:40:06.267Z,998.66
2017-09-10T03:41:06.233Z,998.63
2017-09-10T03:42:06.204Z,998.64
2017-09-10T03:43:06.169Z,998.69
2017-09-10T03:44:06.134Z,998.68
2017-09-10T03:45:06.100Z,998.66
2017-09-10T03:46:06.080Z,998.70
2017-09-10T03:47:06.034Z,998.69
2017-09-10T03:48:06.002Z,998.70
2017-09-10T03:49:05.966Z,998.77
2017-09-10T03:50:05.934Z,998.76
2017-09-10T03:51:05.902Z,998.75
2017-09-10T03:52:05.864Z,998.75
2017-09-10T03:53:05.833Z,998.73
2017-09-10T03:54:05.796Z,998.74
2017-09-10T03:55:05.765Z,998.77
2017-09-10T03:56:05.739Z,998.81
2017-09-10T03:57:05.697Z,998.80
2017-09-10T03:58:05.690Z,998.80
2017-09-10T03:59:05.633Z,998.75
2017-09-10T04:00:05.605Z,998.78
2017-09-10T04:01:05.562Z,998.78
2017-09-10T04:02:05.529Z,998.85
2017-09-10T04:03:05.522Z,998.79
2017-09-10T04:04:05.506Z,998.84
2017-09-10T04:05:05.554Z,998.87
2017-09-10T04:06:05.397Z,998.87
2017-09-10T04:07:05.369Z,998.90
2017-09-10T04:08:05.353Z,998.96
2017-09-10T04:09:05.302Z,999.00
2017-09-10T04:10:05.261Z,998.96
2017-09-10T04:11:05.245Z,998.95
2017-09-10T04:12:05.208Z,998.94
2017-09-10T04:13:05.158Z,998.95
2017-09-10T04:14:05.131Z,998.94
2017-09-10T04:15:05.095Z,998.95
2017-09-10T04:16:05.059Z,998.95
2017-09-10T04:17:05.039Z,998.98
2017-09-10T04:18:05.015Z,999.00
2017-09-10T04:19:05.008Z,999.02
2017-09-10T04:20:04.951Z,999.01
2017-09-10T04:21:04.891Z,998.99
2017-09-10T04:22:04.870Z,998.98
2017-09-10T04:23:04.833Z,999.01
2017-09-10T04:24:04.786Z,999.03
2017-09-10T04:25:04.765Z,999.03
2017-09-10T04:26:04.721Z,999.03
2017-09-10T04:27:04.704Z,998.99
2017-09-10T04:28:04.677Z,998.96
2017-09-10T04:29:04.670Z,998.97
2017-09-10T04:30:04.593Z,998.99
2017-09-10T04:31:04.643Z,999.00
2017-09-10T04:32:04.534Z,999.05
2017-09-10T04:33:04.509Z,999.03
2017-09-10T04:34:04.454Z,999.03
2017-09-10T04:35:04.422Z,999.01
2017-09-10T04:36:04.389Z,999.06
2017-09-10T04:37:04.352Z,999.02
2017-09-10T04:38:04.324Z,999.05
2017-09-10T04:39:04.287Z,999.07
2017-09-10T04:40:04.252Z,999.09
2017-09-10T04:41:04.220Z,999.11
2017-09-10T04:42:04.184Z,999.11
2017-09-10T04:43:04.153Z,999.11
2017-09-10T04:44:04.115Z,999.11
2017-09-10T04:45:04.081Z,999.10
2017-09-10T04:46:04.048Z,999.12
2017-09-10T04:47:04.014Z,999.14
2017-09-10T04:48:03.986Z,999.16
2017-09-10T04:49:03.948Z,999.17
2017-09-10T04:50:03.928Z,999.19
2017-09-10T04:51:03.884Z,999.23
2017-09-10T04:52:03.845Z,999.23
2017-09-10T04:53:03.812Z,999.25
2017-09-10T04:54:03.786Z,999.27
2017-09-10T04:55:03.756Z,999.22
2017-09-10T04:56:03.711Z,999.23
2017-09-10T04:57:03.680Z,999.24
2017-09-10T04:58:03.645Z,999.24
2017-09-10T04:59:03.612Z,999.26
2017-09-10T05:00:03.581Z,999.28
2017-09-10T05:01:03.545Z,999.31
2017-09-10T05:02:03.507Z,999.34
2017-09-10T05:03:03.482Z,999.33
2017-09-10T05:04:03.441Z,999.36
2017-09-10T05:05:03.419Z,999.40
2017-09-10T05:06:03.373Z,999.38
2017-09-10T05:07:03.343Z,999.40
2017-09-10T05:08:03.320Z,999.36
2017-09-10T05:09:03.278Z,999.40
2017-09-10T05:10:03.241Z,999.36
2017-09-10T05:11:03.205Z,999.38
2017-09-10T05:12:03.172Z,999.40
2017-09-10T05:13:03.140Z,999.44
2017-09-10T05:14:03.112Z,999.50
2017-09-10T05:15:03.071Z,999.50
2017-09-10T05:16:03.038Z,999.51
2017-09-10T05:17:03.005Z,999.55
2017-09-10T05:18:02.974Z,999.54
2017-09-10T05:19:02.943Z,999.59
2017-09-10T05:20:02.908Z,999.59
2017-09-10T05:21:02.876Z,999.63
2017-09-10T05:22:02.836Z,999.65
2017-09-10T05:23:02.815Z,999.64
2017-09-10T05:24:02.786Z,999.68
2017-09-10T05:25:02.737Z,999.66
2017-09-10T05:26:02.706Z,999.70
2017-09-10T05:27:02.675Z,999.71
2017-09-10T05:28:02.666Z,999.72
2017-09-10T05:29:02.606Z,999.71
2017-09-10T05:30:02.571Z,999.74
2017-09-10T05:31:02.539Z,999.72
2017-09-10T05:32:02.506Z,999.71
2017-09-10T05:33:02.478Z,999.75
2017-09-10T05:34:02.436Z,999.75
2017-09-10T05:35:02.412Z,999.76
2017-09-10T05:36:02.377Z,999.78
2017-09-10T05:37:02.336Z,999.78
2017-09-10T05:38:02.303Z,999.76
2017-09-10T05:39:02.275Z,999.80
2017-09-10T05:40:02.236Z,999.84
2017-09-10T05:41:02.203Z,999.84
2017-09-10T05:42:02.171Z,999.89
2017-09-10T05:43:02.137Z,999.89
2017-09-10T05:44:02.102Z,999.89
2017-09-10T05:45:02.076Z,999.90
2017-09-10T05:46:02.044Z,999.93
2017-09-10T05:47:02.007Z,999.93
2017-09-10T05:48:01.986Z,999.93
2017-09-10T05:49:01.946Z,999.97
2017-09-10T05:50:01.924Z,999.98
2017-09-10T05:51:01.877Z,999.98
2017-09-10T05:52:01.839Z,999.99
2017-09-10T05:53:01.808Z,1000.02
2017-09-10T05:54:01.773Z,1000.04
2017-09-10T05:55:01.739Z,1000.05
2017-09-10T05:56:01.707Z,1000.13
2017-09-10T05:57:01.673Z,1000.11
2017-09-10T05:58:01.654Z,1000.11
2017-09-10T05:59:01.608Z,1000.11
2017-09-10T06:00:01.576Z,1000.15
2017-09-10T06:01:01.543Z,1000.15
2017-09-10T06:02:01.511Z,1000.18
2017-09-10T06:03:01.477Z,1000.17
2017-09-10T06:04:01.448Z,1000.15
2017-09-10T06:05:01.413Z,1000.16
2017-09-10T06:06:01.380Z,1000.12
2017-09-10T06:07:01.346Z,1000.13
2017-09-10T06:08:01.333Z,1000.15
2017-09-10T06:09:01.282Z,1000.18
2017-09-10T06:10:01.249Z,1000.14
2017-09-10T06:11:01.218Z,1000.13
2017-09-10T06:12:01.197Z,1000.14
2017-09-10T06:13:01.156Z,1000.15
2017-09-10T06:14:01.120Z,1000.13
2017-09-10T06:15:01.085Z,1000.12
2017-09-10T06:16:01.053Z,1000.17
2017-09-10T06:17:01.020Z,1000.21
2017-09-10T06:18:00.988Z,1000.22
2017-09-10T06:19:00.958Z,1000.22
2017-09-10T06:20:00.922Z,1000.26
2017-09-10T06:21:00.891Z,1000.22
2017-09-10T06:22:00.858Z,1000.24
2017-09-10T06:23:00.828Z,1000.27
2017-09-10T06:24:00.796Z,1000.26
2017-09-10T06:25:00.766Z,1000.27
2017-09-10T06:26:00.733Z,1000.32
2017-09-10T06:27:00.709Z,1000.30
2017-09-10T06:28:00.665Z,1000.33
2017-09-10T06:29:00.636Z,1000.36
2017-09-10T06:30:00.599Z,1000.33
2017-09-10T06:31:00.573Z,1000.33
2017-09-10T06:32:00.534Z,1000.36
2017-09-10T06:33:00.507Z,1000.36
2017-09-10T06:34:00.495Z,1000.36
2017-09-10T06:35:00.449Z,1000.34
2017-09-10T06:36:00.405Z,1000.36
2017-09-10T06:37:00.376Z,1000.40
2017-09-10T06:38:00.347Z,1000.40
2017-09-10T06:39:00.321Z,1000.36
2017-09-10T06:40:00.280Z,1000.34
2017-09-10T06:41:00.260Z,1000.34
2017-09-10T06:42:00.222Z,1000.37
2017-09-10T06:43:00.199Z,1000.37
2017-09-10T06:44:00.152Z,1000.39
2017-09-10T06:45:00.121Z,1000.43
2017-09-10T06:46:00.093Z,1000.43
2017-09-10T06:47:00.063Z,1000.41
2017-09-10T06:48:00.025Z,1000.43
2017-09-10T06:48:59.993Z,1000.45
2017-09-10T06:49:59.962Z,1000.46
2017-09-10T06:50:59.943Z,1000.51
2017-09-10T06:51:59.895Z,1000.50
2017-09-10T06:52:59.861Z,1000.52
2017-09-10T06:53:59.836Z,1000.56
2017-09-10T06:54:59.807Z,1000.58
2017-09-10T06:55:59.767Z,1000.59
2017-09-10T06:56:59.755Z,1000.63
2017-09-10T06:57:59.728Z,1000.63
2017-09-10T06:58:59.716Z,1000.61
2017-09-10T06:59:59.643Z,1000.60
2017-09-10T07:00:59.611Z,1000.61
2017-09-10T07:01:59.580Z,1000.60
2017-09-10T07:02:59.559Z,1000.65
2017-09-10T07:03:59.524Z,1000.63
2017-09-10T07:04:59.483Z,1000.67
2017-09-10T07:05:59.454Z,1000.65
2017-09-10T07:06:59.452Z,1000.65
2017-09-10T07:07:59.391Z,1000.68
2017-09-10T07:08:59.362Z,1000.66
2017-09-10T07:09:59.329Z,1000.62
2017-09-10T07:10:59.297Z,1000.66
2017-09-10T07:11:59.266Z,1000.66
2017-09-10T07:12:59.238Z,1000.66
2017-09-10T07:13:59.218Z,1000.69
2017-09-10T07:14:59.176Z,1000.73
2017-09-10T07:15:59.147Z,1000.78
2017-09-10T07:16:59.121Z,1000.82
2017-09-10T07:17:59.084Z,1000.81
2017-09-10T07:18:59.052Z,1000.83
2017-09-10T07:19:59.020Z,1000.86
2017-09-10T07:20:58.988Z,1000.85
2017-09-10T07:21:58.957Z,1000.88
2017-09-10T07:22:58.930Z,1000.86
2017-09-10T07:23:58.894Z,1000.85
2017-09-10T07:24:58.874Z,1000.85
2017-09-10T07:25:58.845Z,1000.90
2017-09-10T07:26:58.806Z,1000.89
2017-09-10T07:27:58.772Z,1000.89
2017-09-10T07:28:58.741Z,1000.91
2017-09-10T07:29:58.717Z,1000.86
2017-09-10T07:30:58.680Z,1000.89
2017-09-10T07:31:58.650Z,1000.88
2017-09-10T07:32:58.636Z,1000.84
2017-09-10T07:33:58.623Z,1000.84
2017-09-10T07:34:58.557Z,1000.80
2017-09-10T07:35:58.527Z,1000.78
2017-09-10T07:36:58.498Z,1000.77
2017-09-10T07:37:58.506Z,1000.79
2017-09-10T07:38:58.434Z,1000.80
2017-09-10T07:39:58.401Z,1000.82
2017-09-10T07:40:58.373Z,1000.81
2017-09-10T07:41:58.343Z,1000.84
2017-09-10T07:42:58.314Z,1000.81
2017-09-10T07:43:58.279Z,1000.81
2017-09-10T07:44:58.248Z,1000.82
2017-09-10T07:45:58.219Z,1000.83
2017-09-10T07:46:58.188Z,1000.84
2017-09-10T07:47:58.159Z,1000.88
2017-09-10T07:48:58.126Z,1000.83
2017-09-10T07:49:58.097Z,1000.86
2017-09-10T07:50:58.065Z,1000.83
2017-09-10T07:51:58.035Z,1000.83
2017-09-10T07:52:58.003Z,1000.87
2017-09-10T07:53:57.976Z,1000.88
2017-09-10T07:54:57.956Z,1000.89
2017-09-10T07:55:57.920Z,1000.87
2017-09-10T07:56:57.882Z,1000.89
2017-09-10T07:57:57.853Z,1000.87
2017-09-10T07:58:57.835Z,1000.86
2017-09-10T07:59:57.791Z,1000.87
2017-09-10T08:00:57.772Z,1000.88
2017-09-10T08:01:57.731Z,1000.82
2017-09-10T08:02:57.703Z,1000.86
2017-09-10T08:03:57.676Z,1000.88
2017-09-10T08:04:57.652Z,1000.90
2017-09-10T08:05:57.610Z,1000.95
2017-09-10T08:06:57.585Z,1001.00
2017-09-10T08:07:57.564Z,1001.03
2017-09-10T08:08:57.527Z,1001.02
2017-09-10T08:09:57.500Z,1001.04
2017-09-10T08:10:57.462Z,1001.07
2017-09-10T08:11:57.429Z,1001.05
2017-09-10T08:12:57.402Z,1001.06
2017-09-10T08:13:57.399Z,1001.06
2017-09-10T08:14:57.378Z,1001.08
2017-09-10T08:15:57.306Z,1001.09
2017-09-10T08:16:57.277Z,1001.09
2017-09-10T08:17:57.256Z,1001.06
2017-09-10T08:18:57.225Z,1001.02
2017-09-10T08:19:57.187Z,1001.08
2017-09-10T08:20:57.158Z,1001.00
2017-09-10T08:21:57.127Z,1001.03
2017-09-10T08:22:57.098Z,1000.98
2017-09-10T08:23:57.065Z,1000.98
2017-09-10T08:24:57.051Z,1000.99
2017-09-10T08:25:57.012Z,1001.06
2017-09-10T08:26:56.982Z,1000.99
2017-09-10T08:27:56.954Z,1000.98
2017-09-10T08:28:56.927Z,1001.02
2017-09-10T08:29:56.886Z,1000.98
2017-09-10T08:30:56.865Z,1000.98
2017-09-10T08:31:56.827Z,1001.02
2017-09-10T08:32:56.803Z,1001.02
2017-09-10T08:33:56.768Z,1001.09
2017-09-10T08:34:56.743Z,1001.07
2017-09-10T08:35:56.706Z,1001.10
2017-09-10T08:36:56.678Z,1001.15
2017-09-10T08:37:56.655Z,1001.20
2017-09-10T08:38:56.618Z,1001.07
2017-09-10T08:39:56.588Z,1001.21
2017-09-10T08:40:56.552Z,1001.22
2017-09-10T08:41:56.533Z,1001.28
2017-09-10T08:42:56.503Z,1001.30
2017-09-10T08:43:56.464Z,1001.28
2017-09-10T08:44:56.435Z,1001.17
2017-09-10T08:45:56.406Z,1001.14
2017-09-10T08:46:56.376Z,1001.12
2017-09-10T08:47:56.345Z,1000.99
2017-09-10T08:48:56.325Z,1000.99
2017-09-10T08:49:56.288Z,1000.97
2017-09-10T08:50:56.254Z,1001.03
2017-09-10T08:51:56.227Z,1001.09
2017-09-10T08:52:56.197Z,1001.04
2017-09-10T08:53:56.171Z,1001.10
2017-09-10T08:54:56.136Z,1001.11
2017-09-10T08:55:56.106Z,1001.10
2017-09-10T08:56:56.085Z,1001.16
2017-09-10T08:57:56.055Z,1001.19
2017-09-10T08:58:56.016Z,1001.20
2017-09-10T08:59:55.986Z,1001.16
2017-09-10T09:00:55.960Z,1001.19
2017-09-10T09:01:55.928Z,1001.11
2017-09-10T09:02:55.897Z,1001.06
2017-09-10T09:03:55.870Z,1001.02
2017-09-10T09:04:55.839Z,1001.08
2017-09-10T09:05:55.811Z,1001.09
2017-09-10T09:06:55.788Z,1001.16
2017-09-10T09:07:55.745Z,1001.17
2017-09-10T09:08:55.720Z,1001.19
2017-09-10T09:09:55.692Z,1001.18
2017-09-10T09:10:55.671Z,1001.23
2017-09-10T09:11:55.628Z,1001.24
2017-09-10T09:12:55.601Z,1001.18
2017-09-10T09:13:55.592Z,1001.16
2017-09-10T09:14:55.547Z,1001.13
2017-09-10T09:15:55.510Z,1001.10
2017-09-10T09:16:55.479Z,1001.11
2017-09-10T09:17:55.451Z,1001.09
2017-09-10T09:18:55.425Z,1001.11
2017-09-10T09:19:55.406Z,1001.07
2017-09-10T09:20:55.370Z,1001.09
2017-09-10T09:21:55.346Z,1001.12
2017-09-10T09:22:55.301Z,1000.97
2017-09-10T09:23:55.302Z,1001.15
2017-09-10T09:24:55.250Z,1001.13
2017-09-10T09:25:55.214Z,1001.08
2017-09-10T09:26:55.186Z,1001.11
2017-09-10T09:27:55.169Z,1001.14
2017-09-10T09:28:55.145Z,1001.11
2017-09-10T09:29:55.094Z,1001.14
2017-09-10T09:30:55.084Z,1001.16
2017-09-10T09:31:55.035Z,1001.19
2017-09-10T09:32:55.011Z,1001.26
2017-09-10T09:33:55.016Z,1001.23
2017-09-10T09:34:54.949Z,1001.23
2017-09-10T09:35:54.924Z,1001.24
2017-09-10T09:36:54.890Z,1001.23
2017-09-10T09:37:54.861Z,1001.21
2017-09-10T09:38:54.883Z,1001.28
2017-09-10T09:39:54.801Z,1001.29
2017-09-10T09:40:54.772Z,1001.30
2017-09-10T09:41:54.751Z,1001.29
2017-09-10T09:42:54.719Z,1001.30
2017-09-10T09:43:54.679Z,1001.33
2017-09-10T09:44:54.652Z,1001.34
2017-09-10T09:45:54.633Z,1001.39
2017-09-10T09:46:54.599Z,1001.36
2017-09-10T09:47:54.563Z,1001.26
2017-09-10T09:48:54.539Z,1001.42
2017-09-10T09:49:54.507Z,1001.43
2017-09-10T09:50:54.477Z,1001.51
2017-09-10T09:51:54.445Z,1001.40
2017-09-10T09:52:54.415Z,1001.44
2017-09-10T09:53:54.386Z,1001.51
2017-09-10T09:54:54.359Z,1001.52
2017-09-10T09:55:54.338Z,1001.53
2017-09-10T09:56:54.308Z,1001.39
2017-09-10T09:57:54.268Z,1001.36
2017-09-10T09:58:54.245Z,1001.31
2017-09-10T09:59:54.223Z,1001.49
2017-09-10T10:00:54.181Z,1001.48
2017-09-10T10:01:54.156Z,1001.46
2017-09-10T10:02:54.132Z,1001.49
2017-09-10T10:03:54.096Z,1001.44
2017-09-10T10:04:54.067Z,1001.38
2017-09-10T10:05:54.043Z,1001.46
2017-09-10T10:06:54.011Z,1001.46
2017-09-10T10:07:53.976Z,1001.41
2017-09-10T10:08:53.947Z,1001.40
2017-09-10T10:09:53.922Z,1001.40
2017-09-10T10:10:53.889Z,1001.39
2017-09-10T10:11:53.870Z,1001.35
2017-09-10T10:12:53.837Z,1001.33
2017-09-10T10:13:53.802Z,1001.32
2017-09-10T10:14:53.773Z,1001.32
2017-09-10T10:15:53.742Z,1001.32
2017-09-10T10:16:53.714Z,1001.33
2017-09-10T10:17:53.683Z,1001.30
2017-09-10T10:18:53.656Z,1001.33
2017-09-10T10:19:53.631Z,1001.30
2017-09-10T10:20:53.595Z,1001.29
2017-09-10T10:21:53.565Z,1001.32
2017-09-10T10:22:53.537Z,1001.34
2017-09-10T10:23:53.506Z,1001.36
2017-09-10T10:24:53.488Z,1001.37
2017-09-10T10:25:53.458Z,1001.38
2017-09-10T10:26:53.434Z,1001.35
2017-09-10T10:27:53.389Z,1001.35
2017-09-10T10:28:53.360Z,1001.32
2017-09-10T10:29:53.338Z,1001.31
2017-09-10T10:30:53.304Z,1001.33
2017-09-10T10:31:53.273Z,1001.35
2017-09-10T10:32:53.243Z,1001.34
2017-09-10T10:33:53.211Z,1001.34
2017-09-10T10:34:53.186Z,1001.39
2017-09-10T10:35:53.155Z,1001.36
2017-09-10T10:36:53.130Z,1001.39
2017-09-10T10:37:53.094Z,1001.37
2017-09-10T10:38:53.068Z,1001.32
2017-09-10T10:39:53.042Z,1001.31
2017-09-10T10:40:53.014Z,1001.30
2017-09-10T10:41:52.976Z,1001.36
2017-09-10T10:42:52.947Z,1001.41
2017-09-10T10:43:52.925Z,1001.40
2017-09-10T10:44:52.890Z,1001.38
2017-09-10T10:45:52.864Z,1001.39
2017-09-10T10:46:52.838Z,1001.37
2017-09-10T10:47:52.802Z,1001.38
2017-09-10T10:48:52.772Z,1001.44
2017-09-10T10:49:52.743Z,1001.39
2017-09-10T10:50:52.716Z,1001.44
2017-09-10T10:51:52.689Z,1001.45
2017-09-10T10:52:52.655Z,1001.40
2017-09-10T10:53:52.638Z,1001.38
2017-09-10T10:54:52.598Z,1001.30
2017-09-10T10:55:52.578Z,1001.31
2017-09-10T10:56:52.541Z,1001.28
2017-09-10T10:57:52.513Z,1001.27
2017-09-10T10:58:52.480Z,1001.30
2017-09-10T10:59:52.461Z,1001.15
2017-09-10T11:00:52.428Z,1001.20
2017-09-10T11:01:52.399Z,1001.15
2017-09-10T11:02:52.369Z,1001.10
2017-09-10T11:03:52.339Z,1001.24
2017-09-10T11:04:52.310Z,1001.25
2017-09-10T11:05:52.281Z,1001.28
2017-09-10T11:06:52.258Z,1001.16
2017-09-10T11:07:52.224Z,1001.18
2017-09-10T11:08:52.192Z,1001.16
2017-09-10T11:09:52.170Z,1001.16
2017-09-10T11:10:52.131Z,1001.17
2017-09-10T11:11:52.104Z,1001.18
2017-09-10T11:12:52.075Z,1001.35
2017-09-10T11:13:52.046Z,1001.37
2017-09-10T11:14:52.022Z,1001.28
2017-09-10T11:15:51.991Z,1001.26
2017-09-10T11:16:51.965Z,1001.29
2017-09-10T11:17:51.930Z,1001.39
2017-09-10T11:18:51.901Z,1001.50
2017-09-10T11:19:51.872Z,1001.51
2017-09-10T11:20:51.850Z,1001.31
2017-09-10T11:21:51.814Z,1001.30
2017-09-10T11:22:51.787Z,1001.35
2017-09-10T11:23:51.765Z,1001.43
2017-09-10T11:24:51.726Z,1001.33
2017-09-10T11:25:51.706Z,1001.45
2017-09-10T11:26:51.667Z,1001.42
2017-09-10T11:27:51.648Z,1001.40
2017-09-10T11:28:51.610Z,1001.36
2017-09-10T11:29:51.584Z,1001.37
2017-09-10T11:30:51.571Z,1001.37
2017-09-10T11:31:51.524Z,1001.41
2017-09-10T11:32:51.492Z,1001.41
2017-09-10T11:33:51.477Z,1001.36
2017-09-10T11:34:51.464Z,1001.32
2017-09-10T11:35:51.414Z,1001.34
2017-09-10T11:36:51.375Z,1001.32
2017-09-10T11:37:51.356Z,1001.30
2017-09-10T11:38:51.328Z,1001.35
2017-09-10T11:39:51.344Z,1001.32
2017-09-10T11:40:51.272Z,1001.36
2017-09-10T11:41:51.244Z,1001.34
2017-09-10T11:42:51.212Z,1001.17
2017-09-10T11:43:51.171Z,1001.15
2017-09-10T11:44:51.147Z,1001.11
2017-09-10T11:45:51.125Z,1001.15
2017-09-10T11:46:51.087Z,1001.15
2017-09-10T11:47:51.078Z,1001.08
2017-09-10T11:48:51.042Z,1001.19
2017-09-10T11:49:51.006Z,1001.09
2017-09-10T11:50:50.987Z,1001.13
2017-09-10T11:51:50.942Z,1001.17
2017-09-10T11:52:50.931Z,1001.27
2017-09-10T11:53:50.886Z,1001.26
2017-09-10T11:54:50.894Z,1001.22
2017-09-10T11:55:50.829Z,1001.24
2017-09-10T11:56:50.796Z,1001.27
2017-09-10T11:57:50.776Z,1001.27
2017-09-10T11:58:50.743Z,1001.29
2017-09-10T11:59:50.712Z,1001.28
2017-09-10T12:00:50.725Z,1001.32
2017-09-10T12:01:50.653Z,1001.30
2017-09-10T12:02:50.633Z,1001.27
2017-09-10T12:03:50.598Z,1001.25
2017-09-10T12:04:50.568Z,1001.20
2017-09-10T12:05:50.539Z,1001.10
2017-09-10T12:06:50.521Z,1001.18
2017-09-10T12:07:50.485Z,1001.17
2017-09-10T12:08:50.471Z,1001.03
2017-09-10T12:09:50.429Z,1001.18
2017-09-10T12:10:50.417Z,1001.23
2017-09-10T12:11:50.377Z,1001.16
2017-09-10T12:12:50.339Z,1001.15
2017-09-10T12:13:50.332Z,1001.06
2017-09-10T12:14:50.328Z,1000.98
2017-09-10T12:15:50.245Z,1000.97